Time;durP1;ratioP1;P1;durP2;ratioP2;P2;SDS_P1;SDS_P2;PMS_P1;PMS_P2;Temp;Humidity;BMP_temperature;BMP_pressure;BME280_temperature;BME280_humidity;BME280_pressure;Samples;Min_cycle;Max_cycle;Signal;HPM_P1;HPM_P2
2023/09/25 00:00:31;;;;;;;4.68;2.10;;;14.10;99.90;;;;;;5126885;27;20357;-64
2023/09/25 00:02:58;;;;;;;5.18;2.45;;;14.00;99.90;;;;;;5125781;27;20334;-63
2023/09/25 00:05:24;;;;;;;5.55;2.35;;;14.00;99.90;;;;;;5125452;27;20046;-64
2023/09/25 00:07:49;;;;;;;5.15;2.35;;;13.90;99.90;;;;;;5106212;27;20074;-63
2023/09/25 00:10:15;;;;;;;5.72;2.58;;;13.90;99.90;;;;;;5126448;27;20132;-63
2023/09/25 00:12:41;;;;;;;5.63;2.83;;;13.90;99.90;;;;;;5126048;27;20035;-62
2023/09/25 00:15:08;;;;;;;4.72;2.60;;;13.90;99.90;;;;;;5107302;27;20039;-64
2023/09/25 00:17:34;;;;;;;5.10;2.65;;;13.90;99.90;;;;;;5126188;27;20095;-63
2023/09/25 00:20:00;;;;;;;5.75;2.40;;;13.80;99.90;;;;;;5125584;27;20424;-63
2023/09/25 00:22:26;;;;;;;5.50;2.42;;;13.80;99.90;;;;;;5126051;27;20035;-63
2023/09/25 00:24:51;;;;;;;5.25;2.58;;;13.70;99.90;;;;;;5126185;27;20486;-63
2023/09/25 00:27:17;;;;;;;4.88;1.77;;;13.70;99.90;;;;;;5106584;27;20490;-62
2023/09/25 00:29:43;;;;;;;6.68;2.35;;;13.60;99.90;;;;;;5107797;27;20470;-64
2023/09/25 00:32:08;;;;;;;7.75;2.90;;;13.60;99.90;;;;;;5124773;27;20047;-62
2023/09/25 00:34:34;;;;;;;5.13;2.20;;;13.60;99.90;;;;;;5124710;27;20126;-64
2023/09/25 00:36:59;;;;;;;5.32;2.58;;;13.60;99.90;;;;;;5125954;27;20038;-62
2023/09/25 00:39:25;;;;;;;9.18;3.63;;;13.60;99.90;;;;;;5124886;27;20070;-63
2023/09/25 00:41:51;;;;;;;5.03;2.60;;;13.50;99.90;;;;;;5125687;27;20051;-63
2023/09/25 00:44:16;;;;;;;6.60;2.80;;;13.50;99.90;;;;;;5107146;27;20410;-64
2023/09/25 00:46:43;;;;;;;5.88;1.80;;;13.50;99.90;;;;;;5124892;27;20578;-64
2023/09/25 00:49:10;;;;;;;6.65;2.97;;;13.10;99.90;;;;;;5123924;27;20035;-63
2023/09/25 00:51:37;;;;;;;5.57;3.00;;;13.50;99.90;;;;;;5107225;27;20043;-62
2023/09/25 00:54:03;;;;;;;6.50;2.70;;;13.40;99.90;;;;;;5107378;27;20388;-63
2023/09/25 00:56:29;;;;;;;7.60;2.83;;;13.40;99.90;;;;;;5125361;27;20039;-63
2023/09/25 00:58:54;;;;;;;5.55;2.70;;;13.50;99.90;;;;;;5125425;27;20050;-63
2023/09/25 01:01:21;;;;;;;5.07;2.58;;;13.50;99.90;;;;;;5124894;27;20023;-62
2023/09/25 01:03:47;;;;;;;5.15;2.92;;;13.50;99.90;;;;;;5125472;27;20055;-61
2023/09/25 01:06:13;;;;;;;5.60;3.05;;;13.50;99.90;;;;;;5124787;27;20047;-64
2023/09/25 01:08:40;;;;;;;5.85;2.40;;;13.40;99.90;;;;;;5104731;27;20035;-63
2023/09/25 01:11:05;;;;;;;6.25;2.88;;;13.50;99.90;;;;;;5124169;27;20071;-63
2023/09/25 01:13:31;;;;;;;6.82;2.92;;;13.40;99.90;;;;;;5089350;27;20075;-63
2023/09/25 01:15:57;;;;;;;7.47;2.20;;;13.40;99.90;;;;;;5124679;27;20255;-63
2023/09/25 01:18:22;;;;;;;5.63;3.10;;;13.50;99.90;;;;;;5124511;27;20042;-64
2023/09/25 01:20:49;;;;;;;6.88;2.90;;;13.40;99.90;;;;;;5124310;27;20031;-63
2023/09/25 01:23:15;;;;;;;6.20;3.13;;;13.40;99.90;;;;;;5124372;27;20042;-63
2023/09/25 01:25:41;;;;;;;7.55;3.08;;;13.40;99.90;;;;;;5106309;27;20038;-63
2023/09/25 01:28:06;;;;;;;7.05;3.28;;;13.40;99.90;;;;;;5104777;27;20126;-62
2023/09/25 01:30:32;;;;;;;5.75;3.15;;;13.50;99.90;;;;;;5124813;27;20076;-63
2023/09/25 01:32:58;;;;;;;5.50;2.78;;;13.40;99.90;;;;;;5123594;27;20038;-63
2023/09/25 01:35:25;;;;;;;6.20;2.92;;;13.40;99.90;;;;;;5106231;27;20031;-64
2023/09/25 01:37:54;;;;;;;5.45;3.30;;;13.40;99.90;;;;;;5103955;27;20035;-62
2023/09/25 01:40:20;;;;;;;7.15;3.42;;;13.40;99.90;;;;;;5124159;27;20043;-63
2023/09/25 01:42:47;;;;;;;7.53;3.75;;;13.40;99.90;;;;;;5124739;27;20080;-63
2023/09/25 01:45:16;;;;;;;5.70;3.15;;;13.40;99.90;;;;;;5123415;27;20470;-62
2023/09/25 01:47:48;;;;;;;6.35;2.85;;;13.40;99.90;;;;;;5124166;27;20039;-63
2023/09/25 01:50:15;;;;;;;6.32;3.20;;;13.30;99.90;;;;;;5104922;27;20039;-63
2023/09/25 01:52:40;;;;;;;6.20;3.30;;;13.30;99.90;;;;;;5124182;27;20378;-62
2023/09/25 01:55:06;;;;;;;6.32;3.20;;;13.30;99.90;;;;;;5123060;27;20043;-63
2023/09/25 01:57:34;;;;;;;8.73;3.45;;;13.30;99.90;;;;;;5105495;27;20027;-62
2023/09/25 01:59:59;;;;;;;7.07;2.67;;;13.30;99.90;;;;;;5123749;27;20035;-64
2023/09/25 02:02:25;;;;;;;6.18;3.47;;;13.20;99.90;;;;;;5105158;27;20092;-64
2023/09/25 02:04:51;;;;;;;5.47;3.40;;;13.20;99.90;;;;;;5105689;27;20067;-63
2023/09/25 02:07:18;;;;;;;5.68;3.30;;;13.20;99.90;;;;;;5124459;27;20031;-62
2023/09/25 02:09:45;;;;;;;7.43;3.47;;;13.20;99.90;;;;;;5123289;27;20064;-63
2023/09/25 02:12:11;;;;;;;5.95;3.60;;;13.10;99.90;;;;;;5124555;27;20035;-62
2023/09/25 02:14:37;;;;;;;5.00;3.25;;;13.10;99.90;;;;;;5123719;27;20391;-63
2023/09/25 02:17:02;;;;;;;7.55;3.58;;;13.10;99.90;;;;;;5123960;27;20041;-63
2023/09/25 02:19:28;;;;;;;5.55;3.42;;;13.00;99.90;;;;;;5123439;27;20147;-63
2023/09/25 02:21:54;;;;;;;5.57;3.50;;;13.00;99.90;;;;;;5124005;27;20031;-64
2023/09/25 02:24:21;;;;;;;6.00;3.75;;;13.00;99.90;;;;;;5123082;27;20501;-61
2023/09/25 02:26:47;;;;;;;5.88;3.30;;;12.90;99.90;;;;;;5123874;27;20113;-62
2023/09/25 02:29:13;;;;;;;7.47;3.85;;;12.90;99.90;;;;;;5123383;27;20550;-62
2023/09/25 02:31:39;;;;;;;7.10;3.65;;;12.90;99.90;;;;;;5123080;27;20045;-63
2023/09/25 02:34:06;;;;;;;5.70;3.60;;;12.90;99.90;;;;;;5124165;27;20098;-64
2023/09/25 02:36:33;;;;;;;6.82;3.60;;;12.80;99.90;;;;;;5124006;27;20055;-61
2023/09/25 02:38:59;;;;;;;5.75;3.50;;;12.80;99.90;;;;;;5123614;27;20031;-62
2023/09/25 02:41:25;;;;;;;4.70;3.25;;;12.90;99.90;;;;;;5123843;28;20031;-63
2023/09/25 02:43:51;;;;;;;6.88;3.80;;;12.80;99.90;;;;;;5123794;28;20094;-62
2023/09/25 02:46:16;;;;;;;7.30;3.92;;;12.80;99.90;;;;;;5124108;28;20419;-62
2023/09/25 02:48:42;;;;;;;5.55;2.75;;;12.80;99.90;;;;;;5105165;28;20099;-63
2023/09/25 02:51:08;;;;;;;6.10;3.88;;;12.80;99.90;;;;;;5123376;28;20460;-63
2023/09/25 02:53:33;;;;;;;5.45;3.63;;;12.70;99.90;;;;;;5107036;27;20087;-62
2023/09/25 02:55:59;;;;;;;7.70;4.00;;;12.70;99.90;;;;;;5127866;27;20609;-63
2023/09/25 02:58:25;;;;;;;7.97;3.90;;;12.70;99.90;;;;;;5128100;27;20485;-63
2023/09/25 03:00:51;;;;;;;8.30;3.80;;;12.60;99.90;;;;;;5127487;27;20470;-64
2023/09/25 03:03:17;;;;;;;5.60;3.42;;;12.70;99.90;;;;;;5108355;27;20030;-63
2023/09/25 03:05:43;;;;;;;5.38;3.50;;;12.70;99.90;;;;;;5108825;27;20065;-62
2023/09/25 03:08:08;;;;;;;5.22;3.80;;;12.70;99.90;;;;;;5108342;27;20043;-63
2023/09/25 03:10:34;;;;;;;6.25;3.20;;;12.70;99.90;;;;;;5127346;27;20041;-63
2023/09/25 03:13:00;;;;;;;6.25;3.33;;;12.70;99.90;;;;;;5127139;27;20510;-63
2023/09/25 03:15:25;;;;;;;8.30;3.97;;;12.60;99.90;;;;;;5108510;27;20112;-63
2023/09/25 03:17:51;;;;;;;6.90;3.60;;;12.70;99.90;;;;;;5126973;27;20118;-62
2023/09/25 03:20:17;;;;;;;5.78;3.65;;;12.60;99.90;;;;;;5108054;27;20090;-63
2023/09/25 03:22:45;;;;;;;6.25;3.42;;;12.70;99.90;;;;;;5127143;27;20034;-63
2023/09/25 03:25:12;;;;;;;6.03;3.55;;;12.60;99.90;;;;;;5127799;27;20089;-62
2023/09/25 03:27:38;;;;;;;6.35;3.58;;;12.70;99.90;;;;;;5127938;27;20036;-62
2023/09/25 03:30:05;;;;;;;6.78;3.85;;;12.70;99.90;;;;;;5127295;27;20047;-62
2023/09/25 03:32:31;;;;;;;5.90;3.65;;;12.70;99.90;;;;;;5105432;27;20039;-63
2023/09/25 03:34:57;;;;;;;5.97;3.40;;;12.70;99.90;;;;;;5126727;27;20389;-64
2023/09/25 03:37:23;;;;;;;7.45;3.70;;;12.70;99.90;;;;;;5126736;27;20031;-63
2023/09/25 03:39:48;;;;;;;6.90;3.33;;;12.70;99.90;;;;;;5127000;27;20490;-62
2023/09/25 03:42:14;;;;;;;4.57;2.90;;;12.80;99.90;;;;;;5126682;27;20031;-63
2023/09/25 03:44:40;;;;;;;7.28;3.50;;;12.80;99.90;;;;;;5127473;27;20031;-63
2023/09/25 03:47:05;;;;;;;5.53;2.65;;;12.80;99.90;;;;;;5126631;27;20038;-63
2023/09/25 03:49:31;;;;;;;5.82;3.40;;;12.80;99.90;;;;;;5125715;27;20485;-64
2023/09/25 03:51:57;;;;;;;6.82;3.28;;;12.80;99.90;;;;;;5126902;27;20042;-62
2023/09/25 03:54:22;;;;;;;6.68;3.60;;;12.80;99.90;;;;;;5126066;27;20030;-63
2023/09/25 03:56:48;;;;;;;6.07;3.80;;;12.80;99.90;;;;;;5125945;27;20042;-64
2023/09/25 03:59:14;;;;;;;5.07;3.25;;;12.80;99.90;;;;;;5126366;27;20038;-63
2023/09/25 04:01:39;;;;;;;5.05;3.47;;;12.80;99.90;;;;;;5126293;27;20034;-63
2023/09/25 04:04:06;;;;;;;5.85;3.13;;;12.80;99.90;;;;;;5126137;27;20920;-63
2023/09/25 04:06:33;;;;;;;5.05;2.95;;;12.80;99.90;;;;;;5126505;27;20039;-63
2023/09/25 04:08:59;;;;;;;7.15;3.22;;;12.80;99.90;;;;;;5126574;27;20027;-63
2023/09/25 04:11:24;;;;;;;6.55;3.15;;;12.80;99.90;;;;;;5126539;27;20042;-62
2023/09/25 04:13:50;;;;;;;4.43;2.92;;;12.80;99.90;;;;;;5125915;27;20382;-63
2023/09/25 04:16:16;;;;;;;5.07;2.80;;;12.90;99.90;;;;;;5124348;27;20053;-64
2023/09/25 04:18:45;;;;;;;4.72;2.40;;;12.90;99.90;;;;;;5124353;28;20099;-63
2023/09/25 04:21:14;;;;;;;6.03;3.33;;;12.90;99.90;;;;;;5125594;28;20514;-62
2023/09/25 04:23:40;;;;;;;6.63;3.47;;;12.80;99.90;;;;;;5124456;28;20035;-63
2023/09/25 04:26:06;;;;;;;7.57;3.80;;;12.80;99.90;;;;;;5125236;28;20493;-63
2023/09/25 04:28:32;;;;;;;6.13;2.90;;;12.80;99.90;;;;;;5125129;27;20031;-62
2023/09/25 04:31:03;;;;;;;4.75;2.20;;;12.80;99.90;;;;;;5124215;28;20382;-64
2023/09/25 04:33:28;;;;;;;6.40;2.78;;;12.80;99.90;;;;;;5124005;28;20122;-62
2023/09/25 04:36:01;;;;;;;5.53;2.92;;;12.90;99.90;;;;;;5125000;28;20126;-62
2023/09/25 04:38:27;;;;;;;6.35;3.00;;;12.90;99.90;;;;;;5124583;28;20529;-63
2023/09/25 04:40:54;;;;;;;6.28;3.10;;;12.80;99.90;;;;;;5104559;28;20023;-63
2023/09/25 04:43:21;;;;;;;6.30;3.10;;;12.80;99.90;;;;;;5106025;28;20038;-63
2023/09/25 04:45:47;;;;;;;5.05;3.35;;;12.80;99.90;;;;;;5106569;28;20486;-64
2023/09/25 04:48:13;;;;;;;6.25;3.10;;;12.80;99.90;;;;;;5124736;28;20799;-63
2023/09/25 04:50:40;;;;;;;5.07;3.15;;;12.80;99.90;;;;;;5123902;28;20076;-63
2023/09/25 04:53:08;;;;;;;6.43;3.00;;;12.80;99.90;;;;;;5124851;28;20116;-63
2023/09/25 04:55:36;;;;;;;7.03;3.35;;;12.80;99.90;;;;;;5123745;28;20073;-62
2023/09/25 04:58:02;;;;;;;5.18;3.10;;;12.80;99.90;;;;;;5123428;28;20043;-63
2023/09/25 05:00:28;;;;;;;4.88;2.85;;;12.80;99.90;;;;;;5123626;28;20047;-64
2023/09/25 05:02:57;;;;;;;5.20;3.00;;;12.70;99.90;;;;;;5124537;28;20424;-63
2023/09/25 05:05:23;;;;;;;4.47;3.08;;;12.80;99.90;;;;;;5105152;28;20042;-63
2023/09/25 05:07:50;;;;;;;5.25;2.95;;;12.70;99.90;;;;;;5124618;28;20042;-63
2023/09/25 05:10:23;;;;;;;4.63;3.05;;;12.70;99.90;;;;;;5124070;28;20035;-62
2023/09/25 05:12:50;;;;;;;4.80;3.03;;;12.70;99.90;;;;;;5123891;28;20039;-64
2023/09/25 05:15:16;;;;;;;6.07;3.13;;;12.60;99.90;;;;;;5083559;27;1089600;-61
2023/09/25 05:17:43;;;;;;;5.20;2.95;;;12.70;99.90;;;;;;5105797;27;20047;-63
2023/09/25 05:20:11;;;;;;;6.50;2.60;;;12.70;99.90;;;;;;5088862;27;20031;-63
2023/09/25 05:22:40;;;;;;;6.53;2.95;;;12.60;99.90;;;;;;5088564;27;20031;-62
2023/09/25 05:25:08;;;;;;;4.20;2.10;;;12.70;99.90;;;;;;5124934;27;20113;-63
2023/09/25 05:27:39;;;;;;;4.50;2.80;;;12.60;99.90;;;;;;5124299;27;20057;-63
2023/09/25 05:30:09;;;;;;;5.88;2.92;;;12.60;99.90;;;;;;5124575;27;20039;-64
2023/09/25 05:32:35;;;;;;;6.63;3.22;;;12.60;99.90;;;;;;5124343;27;20054;-63
2023/09/25 05:35:01;;;;;;;4.80;2.80;;;12.60;99.90;;;;;;5122326;27;20467;-64
2023/09/25 05:37:27;;;;;;;4.80;3.03;;;12.60;99.90;;;;;;5124046;27;20091;-63
2023/09/25 05:39:53;;;;;;;5.57;2.22;;;12.60;99.90;;;;;;5123322;27;20080;-62
2023/09/25 05:42:18;;;;;;;4.78;2.70;;;12.60;99.90;;;;;;5089269;27;20039;-63
2023/09/25 05:44:44;;;;;;;5.65;2.30;;;12.60;99.90;;;;;;5124487;27;20031;-62
2023/09/25 05:47:10;;;;;;;5.13;2.70;;;12.60;99.90;;;;;;5124635;27;20035;-63
2023/09/25 05:49:35;;;;;;;4.50;2.10;;;12.70;99.90;;;;;;5123570;27;20038;-63
2023/09/25 05:52:01;;;;;;;7.50;2.80;;;12.60;99.90;;;;;;5105843;27;20035;-63
2023/09/25 05:54:27;;;;;;;6.28;2.78;;;12.60;99.90;;;;;;5087338;27;20046;-63
2023/09/25 05:56:53;;;;;;;5.53;2.88;;;12.70;99.90;;;;;;5124505;27;20035;-62
2023/09/25 05:59:19;;;;;;;6.30;2.45;;;12.70;99.90;;;;;;5124439;27;20028;-63
2023/09/25 06:01:45;;;;;;;5.13;2.70;;;12.70;99.90;;;;;;5105237;27;20497;-62
2023/09/25 06:04:11;;;;;;;6.90;2.10;;;12.70;99.90;;;;;;5105428;27;20089;-62
2023/09/25 06:06:36;;;;;;;5.30;2.83;;;12.80;99.90;;;;;;5123939;27;20510;-63
2023/09/25 06:09:08;;;;;;;5.88;2.72;;;12.80;99.90;;;;;;5124374;27;20039;-63
2023/09/25 06:11:37;;;;;;;4.03;2.47;;;12.80;99.90;;;;;;5123845;27;20047;-63
2023/09/25 06:14:03;;;;;;;5.57;2.40;;;12.90;99.90;;;;;;5123965;27;20468;-63
2023/09/25 06:16:28;;;;;;;6.28;2.50;;;12.90;99.90;;;;;;5123019;27;20080;-63
2023/09/25 06:18:54;;;;;;;7.38;2.25;;;13.00;99.90;;;;;;5123712;27;20126;-63
2023/09/25 06:21:20;;;;;;;3.60;2.17;;;12.90;99.90;;;;;;5123808;27;20038;-62
2023/09/25 06:23:47;;;;;;;4.10;2.25;;;12.90;99.90;;;;;;5124076;27;20083;-63
2023/09/25 06:26:12;;;;;;;5.00;2.47;;;13.00;99.90;;;;;;5123707;27;20050;-63
2023/09/25 06:28:39;;;;;;;4.90;2.33;;;13.00;99.90;;;;;;5123579;27;20047;-61
2023/09/25 06:31:05;;;;;;;4.03;1.88;;;13.00;99.90;;;;;;5123484;27;20027;-63
2023/09/25 06:33:30;;;;;;;3.83;2.08;;;13.00;99.90;;;;;;5123632;27;20042;-63
2023/09/25 06:35:56;;;;;;;5.35;2.25;;;13.00;99.90;;;;;;5123509;27;20181;-63
2023/09/25 06:38:22;;;;;;;5.75;1.67;;;13.10;99.90;;;;;;5123382;27;20900;-63
2023/09/25 06:40:48;;;;;;;5.30;2.70;;;13.10;99.90;;;;;;5123956;28;20108;-62
2023/09/25 06:43:14;;;;;;;5.22;2.00;;;13.10;99.90;;;;;;5123753;28;20027;-64
2023/09/25 06:45:40;;;;;;;4.82;2.17;;;13.20;99.90;;;;;;5123253;28;20115;-64
2023/09/25 06:48:06;;;;;;;5.65;2.33;;;13.20;99.90;;;;;;5123467;28;20096;-63
2023/09/25 06:50:32;;;;;;;4.75;2.30;;;13.20;99.90;;;;;;5104500;28;20054;-63
2023/09/25 06:52:59;;;;;;;4.40;2.22;;;13.30;99.90;;;;;;5123872;28;20474;-62
2023/09/25 06:55:25;;;;;;;5.00;2.40;;;13.30;99.90;;;;;;5123254;28;20043;-63
2023/09/25 06:57:51;;;;;;;5.03;2.30;;;13.30;99.90;;;;;;5105168;28;20039;-63
2023/09/25 07:00:18;;;;;;;4.68;2.40;;;13.40;99.90;;;;;;5123632;28;20164;-63
2023/09/25 07:02:44;;;;;;;7.15;1.95;;;13.40;99.90;;;;;;5122666;28;20462;-63
2023/09/25 07:05:13;;;;;;;4.53;2.17;;;13.40;99.90;;;;;;5121623;27;20026;-63
2023/09/25 07:07:39;;;;;;;6.72;2.40;;;13.50;99.90;;;;;;5123558;28;20031;-63
2023/09/25 07:10:09;;;;;;;6.47;2.40;;;13.50;99.90;;;;;;5123352;28;20390;-62
2023/09/25 07:12:37;;;;;;;5.70;2.35;;;13.50;99.90;;;;;;5105084;28;20091;-63
2023/09/25 07:15:04;;;;;;;4.68;2.28;;;13.60;99.90;;;;;;5103945;28;20600;-61
2023/09/25 07:17:29;;;;;;;4.88;2.83;;;13.60;99.90;;;;;;5105179;28;20043;-62
2023/09/25 07:19:55;;;;;;;6.18;2.60;;;13.60;99.90;;;;;;5123369;28;20036;-64
2023/09/25 07:22:23;;;;;;;4.47;2.20;;;13.70;99.90;;;;;;5123497;28;20476;-62
2023/09/25 07:24:49;;;;;;;5.30;2.60;;;13.70;99.90;;;;;;5122506;28;20031;-63
2023/09/25 07:27:15;;;;;;;5.97;2.10;;;13.70;99.90;;;;;;5122604;28;20046;-63
2023/09/25 07:29:45;;;;;;;5.72;2.60;;;13.70;99.90;;;;;;5124006;28;20058;-63
2023/09/25 07:32:12;;;;;;;4.15;1.85;;;13.80;99.90;;;;;;5104032;28;20160;-62
2023/09/25 07:34:42;;;;;;;5.70;2.30;;;13.80;99.90;;;;;;5123752;28;20043;-62
2023/09/25 07:37:09;;;;;;;5.35;2.47;;;13.90;99.90;;;;;;5104359;28;20047;-63
2023/09/25 07:39:38;;;;;;;5.15;2.42;;;13.90;99.90;;;;;;5125796;27;20095;-63
2023/09/25 07:42:04;;;;;;;5.88;2.90;;;14.00;99.90;;;;;;5126458;27;20039;-63
2023/09/25 07:44:33;;;;;;;5.03;2.50;;;14.00;99.90;;;;;;5126974;27;20589;-63
2023/09/25 07:47:00;;;;;;;6.03;2.80;;;14.00;99.90;;;;;;5107123;27;20035;-63
2023/09/25 07:49:29;;;;;;;4.13;2.00;;;14.10;99.90;;;;;;5126252;27;20035;-63
2023/09/25 07:52:00;;;;;;;5.07;2.25;;;14.20;99.90;;;;;;5126664;27;20031;-63
2023/09/25 07:54:26;;;;;;;5.78;2.50;;;14.20;99.90;;;;;;5126929;27;20479;-63
2023/09/25 07:56:52;;;;;;;4.63;2.28;;;14.30;99.90;;;;;;5108666;27;20058;-62
2023/09/25 07:59:25;;;;;;;6.35;2.88;;;14.30;99.90;;;;;;5126510;27;20032;-61
2023/09/25 08:01:50;;;;;;;4.45;2.60;;;14.30;99.90;;;;;;5125937;27;20035;-63
2023/09/25 08:04:17;;;;;;;4.88;2.65;;;14.40;99.90;;;;;;5107773;27;20046;-63
2023/09/25 08:06:42;;;;;;;6.18;2.20;;;14.40;99.90;;;;;;5089748;27;20062;-63
2023/09/25 08:09:09;;;;;;;4.40;2.80;;;14.40;99.90;;;;;;5126294;27;20031;-62
2023/09/25 08:11:34;;;;;;;4.03;2.33;;;14.50;99.90;;;;;;5126463;27;20442;-63
2023/09/25 08:14:00;;;;;;;5.22;2.20;;;14.50;99.90;;;;;;5107603;27;20050;-63
2023/09/25 08:16:27;;;;;;;4.65;2.50;;;14.50;99.90;;;;;;5125445;27;20542;-62
2023/09/25 08:18:52;;;;;;;4.55;2.42;;;14.50;99.90;;;;;;5125096;27;20051;-62
2023/09/25 08:21:19;;;;;;;4.80;2.20;;;14.60;99.90;;;;;;5126177;27;20031;-63
2023/09/25 08:23:45;;;;;;;5.82;2.42;;;14.60;99.90;;;;;;5108706;27;20406;-64
2023/09/25 08:26:12;;;;;;;5.15;2.30;;;14.70;99.90;;;;;;5125822;27;20039;-62
2023/09/25 08:28:37;;;;;;;5.88;2.45;;;14.90;99.90;;;;;;5126266;27;20093;-62
2023/09/25 08:31:03;;;;;;;5.53;2.10;;;14.90;99.90;;;;;;5125354;27;20063;-63
2023/09/25 08:33:29;;;;;;;6.45;2.50;;;15.00;99.90;;;;;;5125524;27;20084;-63
2023/09/25 08:35:55;;;;;;;6.28;2.50;;;15.20;99.90;;;;;;5106124;27;20474;-62
2023/09/25 08:38:20;;;;;;;5.40;2.60;;;15.30;99.90;;;;;;5125386;27;20031;-63
2023/09/25 08:40:49;;;;;;;5.70;2.72;;;15.40;99.90;;;;;;5126253;27;20030;-62
2023/09/25 08:43:16;;;;;;;4.82;2.42;;;15.50;99.90;;;;;;5125822;27;20035;-63
2023/09/25 08:45:43;;;;;;;5.72;2.50;;;15.50;99.90;;;;;;5107906;27;20061;-63
2023/09/25 08:48:16;;;;;;;4.38;2.05;;;15.60;99.90;;;;;;5106668;27;20432;-63
2023/09/25 08:50:44;;;;;;;4.50;2.33;;;15.60;99.90;;;;;;5124639;27;20039;-62
2023/09/25 08:53:10;;;;;;;4.20;1.98;;;15.70;99.90;;;;;;5125095;27;20046;-62
2023/09/25 08:55:36;;;;;;;5.03;2.55;;;15.80;99.90;;;;;;5105181;27;20035;-61
2023/09/25 08:58:03;;;;;;;5.25;1.80;;;16.00;99.90;;;;;;5105352;27;20493;-63
2023/09/25 09:00:30;;;;;;;5.03;2.30;;;16.10;99.90;;;;;;5106261;27;20057;-63
2023/09/25 09:02:55;;;;;;;5.43;1.80;;;16.20;99.90;;;;;;5125522;27;20537;-62
2023/09/25 09:05:21;;;;;;;4.32;2.10;;;16.40;99.90;;;;;;5125750;27;20035;-63
2023/09/25 09:07:59;;;;;;;5.28;2.10;;;16.60;99.90;;;;;;5105773;27;20633;-62
2023/09/25 09:10:33;;;;;;;6.43;2.13;;;16.70;99.90;;;;;;5105339;27;20494;-62
2023/09/25 09:12:59;;;;;;;4.47;2.00;;;16.80;99.90;;;;;;5124633;27;20031;-61
2023/09/25 09:15:30;;;;;;;3.95;1.55;;;16.80;99.90;;;;;;5106266;27;20096;-64
2023/09/25 09:17:57;;;;;;;4.65;2.10;;;16.90;99.90;;;;;;5124147;27;20046;-63
2023/09/25 09:20:36;;;;;;;4.20;2.10;;;16.90;99.90;;;;;;5124866;27;20126;-62
2023/09/25 09:23:02;;;;;;;3.95;1.80;;;16.90;99.90;;;;;;5124661;27;20038;-62
2023/09/25 09:25:29;;;;;;;4.18;1.77;;;17.00;99.90;;;;;;5124894;27;20463;-63
2023/09/25 09:27:58;;;;;;;5.15;2.05;;;17.00;99.90;;;;;;5124329;27;20035;-62
2023/09/25 09:30:25;;;;;;;5.50;2.13;;;17.10;99.90;;;;;;5125160;27;20035;-63
2023/09/25 09:32:51;;;;;;;4.43;1.90;;;17.20;99.90;;;;;;5124891;27;20032;-63
2023/09/25 09:35:30;;;;;;;4.55;1.60;;;17.20;99.90;;;;;;5125301;27;20587;-62
2023/09/25 09:37:57;;;;;;;4.85;2.13;;;17.30;99.90;;;;;;5123562;27;20493;-63
2023/09/25 09:40:27;;;;;;;4.30;2.00;;;17.30;99.90;;;;;;5124624;27;20140;-63
2023/09/25 09:42:53;;;;;;;4.80;1.88;;;17.40;99.90;;;;;;5106003;27;20043;-64
2023/09/25 09:45:20;;;;;;;6.40;2.35;;;17.50;99.90;;;;;;5123546;27;20027;-63
2023/09/25 09:47:48;;;;;;;4.93;2.00;;;17.60;99.90;;;;;;5124350;27;20039;-63
2023/09/25 09:50:21;;;;;;;4.90;2.00;;;17.60;99.90;;;;;;5124496;27;20027;-63
2023/09/25 09:52:47;;;;;;;4.82;2.03;;;17.70;99.90;;;;;;5106133;27;20410;-63
2023/09/25 09:55:14;;;;;;;4.45;1.77;;;17.70;99.90;;;;;;5123557;27;20495;-62
2023/09/25 09:57:41;;;;;;;6.57;2.33;;;17.80;99.90;;;;;;5123775;27;20091;-63
2023/09/25 10:00:08;;;;;;;5.40;2.10;;;17.80;99.90;;;;;;5124357;27;20088;-64
2023/09/25 10:02:35;;;;;;;7.57;2.05;;;17.80;99.90;;;;;;5123735;27;20042;-63
2023/09/25 10:05:02;;;;;;;4.93;1.85;;;17.90;99.90;;;;;;5105229;27;20039;-63
2023/09/25 10:07:29;;;;;;;4.63;1.98;;;17.90;99.90;;;;;;5124273;27;20039;-63
2023/09/25 10:10:06;;;;;;;3.67;1.70;;;18.00;99.90;;;;;;5123695;27;20046;-63
2023/09/25 10:12:50;;;;;;;5.75;2.03;;;18.00;99.90;;;;;;5105546;27;20474;-63
2023/09/25 10:15:23;;;;;;;4.57;1.60;;;18.20;99.90;;;;;;5123750;27;20061;-62
2023/09/25 10:17:49;;;;;;;5.20;1.83;;;18.20;99.90;;;;;;5122002;27;20053;-64
2023/09/25 10:20:32;;;;;;;4.88;1.80;;;18.30;99.90;;;;;;5124009;27;20092;-63
2023/09/25 10:23:18;;;;;;;3.85;1.83;;;18.40;99.90;;;;;;5104844;27;20031;-64
2023/09/25 10:26:02;;;;;;;4.75;1.88;;;18.40;99.90;;;;;;5123442;27;20049;-63
2023/09/25 10:28:33;;;;;;;6.00;1.87;;;18.40;99.90;;;;;;5123815;27;20035;-64
2023/09/25 10:31:05;;;;;;;3.58;1.50;;;18.40;99.90;;;;;;5105522;27;20035;-63
2023/09/25 10:33:37;;;;;;;4.55;1.70;;;18.50;99.90;;;;;;5123638;28;20442;-64
2023/09/25 10:36:04;;;;;;;5.78;2.13;;;18.70;99.90;;;;;;5123935;27;20477;-64
2023/09/25 10:38:34;;;;;;;4.43;1.90;;;18.80;99.90;;;;;;5123432;27;20478;-63
2023/09/25 10:41:06;;;;;;;5.20;1.98;;;18.90;99.90;;;;;;5122926;28;20031;-63
2023/09/25 10:43:33;;;;;;;4.78;1.77;;;19.00;99.90;;;;;;5123965;28;20027;-63
2023/09/25 10:45:59;;;;;;;4.00;1.80;;;19.00;99.90;;;;;;5123764;28;20106;-63
2023/09/25 10:48:26;;;;;;;3.90;1.67;;;19.10;99.90;;;;;;5104201;28;20548;-63
2023/09/25 10:50:52;;;;;;;3.55;1.88;;;19.10;99.90;;;;;;5123266;28;20047;-63
2023/09/25 10:53:18;;;;;;;3.25;1.60;;;19.20;99.90;;;;;;5123517;28;20064;-64
2023/09/25 10:55:45;;;;;;;5.30;2.10;;;19.30;99.90;;;;;;5123852;28;20047;-63
2023/09/25 10:58:12;;;;;;;5.43;1.67;;;19.30;99.90;;;;;;5122816;27;20509;-64
2023/09/25 11:00:43;;;;;;;4.05;1.65;;;19.40;99.90;;;;;;5105045;28;20097;-64
2023/09/25 11:03:09;;;;;;;4.40;1.85;;;19.50;99.90;;;;;;5122005;28;20046;-63
2023/09/25 11:05:38;;;;;;;4.32;1.63;;;19.60;99.90;;;;;;5123503;28;20031;-64
2023/09/25 11:08:06;;;;;;;3.33;1.60;;;19.80;99.90;;;;;;5123395;28;20035;-63
2023/09/25 11:10:34;;;;;;;3.80;1.77;;;20.00;99.90;;;;;;5122911;28;20038;-64
2023/09/25 11:13:00;;;;;;;3.97;1.83;;;20.00;99.90;;;;;;5124021;27;20035;-64
2023/09/25 11:15:34;;;;;;;4.63;1.90;;;20.10;99.90;;;;;;5127501;27;20037;-64
2023/09/25 11:18:00;;;;;;;4.88;1.80;;;20.10;99.90;;;;;;5126854;27;20039;-63
2023/09/25 11:20:30;;;;;;;4.72;1.60;;;20.20;99.90;;;;;;5125993;27;20082;-64
2023/09/25 11:23:09;;;;;;;5.63;2.03;;;20.30;99.90;;;;;;5106458;27;20039;-63
2023/09/25 11:25:39;;;;;;;4.63;1.65;;;20.40;99.90;;;;;;5127763;27;20434;-62
2023/09/25 11:28:06;;;;;;;5.72;1.95;;;20.40;99.90;;;;;;5127387;27;20470;-62
2023/09/25 11:30:31;;;;;;;4.90;1.73;;;20.50;99.90;;;;;;5108527;27;20172;-64
2023/09/25 11:33:06;;;;;;;5.10;2.05;;;20.50;99.90;;;;;;5127068;27;20145;-62
2023/09/25 11:35:34;;;;;;;5.25;1.50;;;20.60;99.90;;;;;;5127155;27;20066;-63
2023/09/25 11:38:12;;;;;;;3.92;1.90;;;20.60;99.90;;;;;;5127372;27;20063;-63
2023/09/25 11:40:38;;;;;;;5.50;1.90;;;20.60;99.90;;;;;;5126797;27;20118;-63
2023/09/25 11:43:05;;;;;;;5.03;1.80;;;20.50;99.90;;;;;;5126723;27;20110;-64
2023/09/25 11:45:31;;;;;;;4.57;1.88;;;20.60;99.90;;;;;;5108120;27;20402;-64
2023/09/25 11:47:57;;;;;;;3.97;1.80;;;20.70;99.90;;;;;;5107623;27;20135;-63
2023/09/25 11:50:23;;;;;;;4.80;1.98;;;20.80;99.90;;;;;;5127094;27;20110;-64
2023/09/25 11:52:48;;;;;;;4.95;1.83;;;21.00;99.90;;;;;;5127483;27;20043;-65
2023/09/25 11:55:14;;;;;;;4.75;1.70;;;21.10;99.90;;;;;;5127020;27;20390;-62
2023/09/25 11:57:44;;;;;;;5.93;1.98;;;21.20;99.90;;;;;;5125737;27;20046;-63
2023/09/25 12:00:12;;;;;;;3.40;1.70;;;21.30;99.90;;;;;;5125525;27;20059;-63
2023/09/25 12:02:49;;;;;;;5.63;2.08;;;21.50;99.90;;;;;;5126330;27;20050;-63
2023/09/25 12:05:17;;;;;;;4.97;1.83;;;21.50;99.90;;;;;;5126530;27;20031;-64
2023/09/25 12:07:44;;;;;;;4.63;1.73;;;21.60;99.90;;;;;;5125963;27;20039;-62
2023/09/25 12:10:16;;;;;;;4.90;1.70;;;21.50;99.90;;;;;;5109313;27;20027;-63
2023/09/25 12:12:44;;;;;;;4.38;1.80;;;21.40;99.90;;;;;;5108156;27;20786;-63
2023/09/25 12:15:12;;;;;;;5.22;1.63;;;21.40;99.90;;;;;;5126565;27;20130;-63
2023/09/25 12:17:38;;;;;;;4.63;2.17;;;21.40;99.90;;;;;;5126316;27;20107;-64
2023/09/25 12:20:14;;;;;;;4.70;1.75;;;21.40;99.90;;;;;;5126104;27;20083;-63
2023/09/25 12:22:41;;;;;;;5.15;1.60;;;21.40;99.90;;;;;;5125415;27;20051;-64
2023/09/25 12:25:09;;;;;;;4.15;1.98;;;21.30;99.90;;;;;;5107185;27;20043;-64
2023/09/25 12:27:35;;;;;;;5.30;1.80;;;21.20;99.90;;;;;;5124822;27;20043;-63
2023/09/25 12:30:03;;;;;;;4.28;1.73;;;21.10;99.90;;;;;;5105672;27;20043;-63
2023/09/25 12:32:29;;;;;;;4.10;1.58;;;21.10;99.90;;;;;;5126001;27;20470;-63
2023/09/25 12:34:55;;;;;;;4.53;1.80;;;21.00;99.90;;;;;;5125719;27;20084;-63
2023/09/25 12:37:23;;;;;;;5.50;1.70;;;21.00;99.90;;;;;;5125429;27;20440;-64
2023/09/25 12:39:49;;;;;;;5.07;1.70;;;20.90;99.90;;;;;;5126196;27;20031;-63
2023/09/25 12:42:15;;;;;;;4.88;1.58;;;20.90;99.90;;;;;;5125986;27;20035;-64
2023/09/25 12:44:40;;;;;;;4.70;2.00;;;21.00;99.90;;;;;;5125763;27;20050;-64
2023/09/25 12:47:06;;;;;;;6.53;2.15;;;21.00;99.90;;;;;;5106106;27;20035;-63